Terminal Aerodrome Forecast
Issued by NWS

Home | Current Version | Previous Version | Text Only | Print | Product List | Glossary On
Versions: 1 2 3 4 5 6 7 8 9 10 11 12 13
314
FTUS44 KJAN 051122
TAFGTR
TAF
KGTR 051122Z 0512/0612 03005KT P6SM OVC006
     FM051400 05007KT 3SM -RA BR BKN003 OVC007
     FM052100 10011KT 2SM RA BR VCTS BKN003 OVC010CB
     FM060300 14009KT 3SM BR VCTS BKN003 OVC010CB=

USA.gov is the U.S. government's official web portal to all federal, state and local government web resources and services.